createdAt,value
2017-07-28T00:01:03.255Z,15.90
2017-07-28T00:03:30.780Z,15.90
2017-07-28T00:05:59.193Z,15.70
2017-07-28T00:08:26.721Z,15.70
2017-07-28T00:11:02.606Z,15.70
2017-07-28T00:13:30.144Z,15.70
2017-07-28T00:15:57.677Z,15.70
2017-07-28T00:18:26.342Z,15.60
2017-07-28T00:20:53.884Z,15.50
2017-07-28T00:23:21.412Z,15.60
2017-07-28T00:25:49.057Z,15.50
2017-07-28T00:28:17.357Z,15.50
2017-07-28T00:30:45.010Z,15.40
2017-07-28T00:33:12.545Z,15.40
2017-07-28T00:35:40.948Z,15.30
2017-07-28T00:38:08.484Z,15.30
2017-07-28T00:40:36.789Z,15.30
2017-07-28T00:43:04.369Z,15.20
2017-07-28T00:45:31.906Z,15.20
2017-07-28T00:48:00.018Z,15.20
2017-07-28T00:50:27.546Z,15.10
2017-07-28T00:52:55.188Z,15.10
2017-07-28T00:55:23.521Z,15.00
2017-07-28T00:57:51.377Z,15.00
2017-07-28T01:00:18.909Z,15.00
2017-07-28T01:02:46.480Z,15.00
2017-07-28T01:05:14.009Z,15.00
2017-07-28T01:07:41.757Z,15.00
2017-07-28T01:10:09.294Z,14.90
2017-07-28T01:12:36.830Z,14.90
2017-07-28T01:15:04.404Z,14.90
2017-07-28T01:17:31.932Z,14.90
2017-07-28T01:19:59.569Z,14.90
2017-07-28T01:22:27.873Z,14.80
2017-07-28T01:24:55.801Z,14.80
2017-07-28T01:27:23.343Z,14.70
2017-07-28T01:29:50.874Z,14.60
2017-07-28T01:32:18.506Z,14.60
2017-07-28T01:34:46.809Z,14.50
2017-07-28T01:37:14.386Z,14.50
2017-07-28T01:39:41.920Z,14.50
2017-07-28T01:42:09.555Z,14.50
2017-07-28T01:44:37.897Z,14.40
2017-07-28T01:47:05.952Z,14.40
2017-07-28T01:49:33.497Z,14.40
2017-07-28T01:52:01.029Z,14.40
2017-07-28T01:54:29.370Z,14.30
2017-07-28T01:56:57.183Z,14.30
2017-07-28T01:59:25.723Z,14.20
2017-07-28T02:01:53.261Z,14.20
2017-07-28T02:04:20.845Z,14.20
2017-07-28T02:06:48.378Z,14.20
2017-07-28T02:09:15.950Z,14.10
2017-07-28T02:11:43.485Z,14.10
2017-07-28T02:14:11.372Z,14.10
2017-07-28T02:16:38.903Z,14.00
2017-07-28T02:19:07.677Z,14.00
2017-07-28T02:21:36.093Z,13.90
2017-07-28T02:24:03.637Z,13.90
2017-07-28T02:26:31.215Z,13.90
2017-07-28T02:28:58.980Z,13.80
2017-07-28T02:31:26.532Z,13.80
2017-07-28T02:33:54.065Z,13.80
2017-07-28T02:36:21.712Z,13.80
2017-07-28T02:38:49.286Z,13.80
2017-07-28T02:41:17.580Z,13.70
2017-07-28T02:43:45.156Z,13.70
2017-07-28T02:46:13.176Z,13.60
2017-07-28T02:48:40.705Z,13.60
2017-07-28T02:51:08.238Z,13.60
2017-07-28T02:53:35.815Z,13.60
2017-07-28T02:56:03.393Z,13.60
2017-07-28T02:58:31.296Z,13.50
2017-07-28T03:00:59.637Z,13.50
2017-07-28T03:03:28.308Z,13.50
2017-07-28T03:05:55.845Z,13.50
2017-07-28T03:08:23.422Z,13.50
2017-07-28T03:10:50.952Z,13.50
2017-07-28T03:13:19.442Z,13.40
2017-07-28T03:15:46.977Z,13.40
2017-07-28T03:18:15.290Z,13.30
2017-07-28T03:20:42.950Z,13.30
2017-07-28T03:23:10.477Z,13.30
2017-07-28T03:25:38.786Z,13.20
2017-07-28T03:28:06.421Z,13.20
2017-07-28T03:30:34.250Z,13.20
2017-07-28T03:33:01.788Z,13.20
2017-07-28T03:35:29.778Z,13.20
2017-07-28T03:37:57.308Z,13.20
2017-07-28T03:40:24.877Z,13.20
2017-07-28T03:42:52.450Z,13.10
2017-07-28T03:45:19.985Z,13.10
2017-07-28T03:47:47.560Z,13.10
2017-07-28T03:50:15.100Z,13.10
2017-07-28T03:52:42.868Z,13.10
2017-07-28T03:55:10.443Z,13.10
2017-07-28T03:57:38.102Z,13.00
2017-07-28T04:00:05.659Z,13.00
2017-07-28T04:02:33.233Z,13.00
2017-07-28T04:05:00.771Z,13.10
2017-07-28T04:07:28.306Z,13.10
2017-07-28T04:09:56.722Z,13.10
2017-07-28T04:12:24.249Z,13.10
2017-07-28T04:14:52.550Z,13.10
2017-07-28T04:17:20.124Z,13.10
2017-07-28T04:19:47.653Z,13.10
2017-07-28T04:22:15.224Z,13.10
2017-07-28T04:24:42.754Z,13.10
2017-07-28T04:27:11.169Z,13.10
2017-07-28T04:29:38.709Z,13.10
2017-07-28T04:32:07.130Z,13.10
2017-07-28T04:34:34.663Z,13.10
2017-07-28T04:37:02.389Z,13.10
2017-07-28T04:39:29.916Z,13.10
2017-07-28T04:41:57.809Z,13.10
2017-07-28T04:44:25.347Z,13.10
2017-07-28T04:46:52.881Z,13.10
2017-07-28T04:49:20.973Z,13.10
2017-07-28T04:51:48.514Z,13.10
2017-07-28T04:54:16.045Z,13.10
2017-07-28T04:56:43.796Z,13.20
2017-07-28T04:59:11.882Z,13.20
2017-07-28T05:01:40.181Z,13.30
2017-07-28T05:04:07.717Z,13.30
2017-07-28T05:06:36.180Z,13.40
2017-07-28T05:09:03.717Z,13.40
2017-07-28T05:11:31.290Z,13.50
2017-07-28T05:13:58.865Z,13.50
2017-07-28T05:16:26.409Z,13.60
2017-07-28T05:18:53.986Z,13.60
2017-07-28T05:21:21.566Z,13.60
2017-07-28T05:23:49.957Z,13.70
2017-07-28T05:26:17.493Z,13.70
2017-07-28T05:28:45.829Z,13.90
2017-07-28T05:31:13.361Z,13.90
2017-07-28T05:33:41.070Z,14.00
2017-07-28T05:36:08.650Z,14.10
2017-07-28T05:38:36.326Z,14.10
2017-07-28T05:41:04.624Z,14.20
2017-07-28T05:43:32.393Z,14.20
2017-07-28T05:45:59.930Z,14.30
2017-07-28T05:48:28.269Z,14.40
2017-07-28T05:50:55.813Z,14.40
2017-07-28T05:53:23.390Z,14.40
2017-07-28T05:55:51.213Z,14.40
2017-07-28T05:58:18.805Z,14.50
2017-07-28T06:00:46.566Z,14.60
2017-07-28T06:03:14.093Z,14.60
2017-07-28T06:05:42.016Z,14.70
2017-07-28T06:08:09.546Z,14.70
2017-07-28T06:10:37.081Z,14.80
2017-07-28T06:13:04.673Z,14.80
2017-07-28T06:15:32.757Z,14.80
2017-07-28T06:18:00.289Z,14.90
2017-07-28T06:20:27.816Z,15.00
2017-07-28T06:22:56.152Z,15.10
2017-07-28T06:25:23.681Z,15.10
2017-07-28T06:27:51.260Z,15.20
2017-07-28T06:30:18.807Z,15.30
2017-07-28T06:32:46.465Z,15.40
2017-07-28T06:35:14.001Z,15.40
2017-07-28T06:37:43.047Z,15.50
2017-07-28T06:40:10.586Z,15.40
2017-07-28T06:42:38.113Z,15.60
2017-07-28T06:45:06.457Z,15.70
2017-07-28T06:47:33.990Z,15.70
2017-07-28T06:50:01.647Z,15.70
2017-07-28T06:52:29.189Z,15.80
2017-07-28T06:54:56.765Z,15.80
2017-07-28T06:57:24.421Z,15.80
2017-07-28T06:59:51.990Z,15.90
2017-07-28T07:02:19.530Z,15.90
2017-07-28T07:04:47.105Z,16.00
2017-07-28T07:07:14.634Z,16.00
2017-07-28T07:09:42.357Z,16.20
2017-07-28T07:12:09.924Z,16.20
2017-07-28T07:14:37.497Z,16.20
2017-07-28T07:17:05.078Z,16.30
2017-07-28T07:19:33.381Z,16.30
2017-07-28T07:22:00.960Z,16.30
2017-07-28T07:24:28.530Z,16.40
2017-07-28T07:26:56.719Z,16.40
2017-07-28T07:29:24.268Z,16.40
2017-07-28T07:31:51.821Z,16.40
2017-07-28T07:34:24.337Z,16.30
2017-07-28T07:36:51.905Z,16.30
2017-07-28T07:39:19.601Z,16.40
2017-07-28T07:41:47.134Z,16.40
2017-07-28T07:44:14.838Z,16.50
2017-07-28T07:46:42.370Z,16.60
2017-07-28T07:49:09.941Z,16.70
2017-07-28T07:51:37.490Z,16.80
2017-07-28T07:54:05.827Z,17.00
2017-07-28T07:56:33.366Z,17.00
2017-07-28T07:59:00.937Z,17.10
2017-07-28T08:01:28.671Z,17.10
2017-07-28T08:03:56.584Z,17.10
2017-07-28T08:06:24.130Z,17.10
2017-07-28T08:08:51.661Z,17.30
2017-07-28T08:11:19.240Z,17.50
2017-07-28T08:13:46.817Z,17.70
2017-07-28T08:16:14.402Z,17.80
2017-07-28T08:18:42.708Z,18.10
2017-07-28T08:21:10.439Z,18.10
2017-07-28T08:23:37.983Z,18.30
2017-07-28T08:26:05.569Z,18.40
2017-07-28T08:28:33.881Z,18.60
2017-07-28T08:31:01.438Z,18.60
2017-07-28T08:33:29.304Z,18.80
2017-07-28T08:35:56.918Z,18.90
2017-07-28T08:38:24.466Z,18.90
2017-07-28T08:40:52.013Z,18.80
2017-07-28T08:43:19.730Z,18.80
2017-07-28T08:45:47.286Z,19.00
2017-07-28T08:48:14.834Z,19.20
2017-07-28T08:50:43.799Z,19.30
2017-07-28T08:53:11.357Z,19.30
2017-07-28T08:55:38.905Z,19.40
2017-07-28T08:58:06.986Z,19.40
2017-07-28T09:00:34.701Z,19.30
2017-07-28T09:03:02.245Z,19.30
2017-07-28T09:05:30.780Z,19.40
2017-07-28T09:07:58.769Z,19.30
2017-07-28T09:10:26.306Z,19.40
2017-07-28T09:12:53.852Z,19.40
2017-07-28T09:15:21.701Z,19.50
2017-07-28T09:17:49.237Z,19.50
2017-07-28T09:20:16.773Z,19.60
2017-07-28T09:22:44.514Z,19.70
2017-07-28T09:25:12.049Z,19.70
2017-07-28T09:27:39.594Z,19.80
2017-07-28T09:30:13.058Z,19.80
2017-07-28T09:32:40.601Z,19.80
2017-07-28T09:35:08.142Z,19.80
2017-07-28T09:37:36.147Z,19.80
2017-07-28T09:40:03.723Z,19.80
2017-07-28T09:42:31.262Z,19.90
2017-07-28T09:44:58.978Z,20.00
2017-07-28T09:47:26.525Z,20.00
2017-07-28T09:49:54.875Z,20.20
2017-07-28T09:52:22.417Z,20.10
2017-07-28T09:54:50.165Z,20.20
2017-07-28T09:57:18.284Z,20.20
2017-07-28T09:59:45.873Z,20.20
2017-07-28T10:02:13.426Z,20.20
2017-07-28T10:04:41.765Z,20.20
2017-07-28T10:07:09.293Z,20.20
2017-07-28T10:09:37.110Z,20.20
2017-07-28T10:12:04.798Z,20.20
2017-07-28T10:14:32.364Z,20.10
2017-07-28T10:16:59.910Z,20.10
2017-07-28T10:19:27.489Z,20.10
2017-07-28T10:21:55.034Z,20.20
2017-07-28T10:24:23.378Z,20.40
2017-07-28T10:26:50.908Z,20.40
2017-07-28T10:29:18.941Z,20.60
2017-07-28T10:31:46.479Z,20.80
2017-07-28T10:34:14.012Z,20.80
2017-07-28T10:36:41.772Z,20.80
2017-07-28T10:39:09.349Z,20.90
2017-07-28T10:41:36.893Z,21.00
2017-07-28T10:44:04.736Z,20.90
2017-07-28T10:46:32.269Z,20.70
2017-07-28T10:49:00.581Z,20.70
2017-07-28T10:51:28.788Z,20.70
2017-07-28T10:53:56.317Z,20.80
2017-07-28T10:56:23.849Z,20.90
2017-07-28T10:58:51.570Z,21.10
2017-07-28T11:01:19.209Z,21.30
2017-07-28T11:03:46.792Z,21.30
2017-07-28T11:06:14.758Z,21.30
2017-07-28T11:08:42.288Z,21.30
2017-07-28T11:11:09.825Z,21.30
2017-07-28T11:13:38.196Z,21.10
2017-07-28T11:16:05.726Z,21.10
2017-07-28T11:18:33.262Z,21.10
2017-07-28T11:21:04.710Z,21.20
2017-07-28T11:23:32.244Z,21.40
2017-07-28T11:25:59.784Z,21.40
2017-07-28T11:28:28.453Z,21.50
2017-07-28T11:30:55.982Z,21.50
2017-07-28T11:33:23.518Z,21.50
2017-07-28T11:35:51.630Z,21.60
2017-07-28T11:38:19.161Z,21.90
2017-07-28T11:40:46.702Z,22.20
2017-07-28T11:43:14.278Z,22.40
2017-07-28T11:45:41.808Z,22.50
2017-07-28T11:48:10.148Z,22.70
2017-07-28T11:50:37.837Z,22.60
2017-07-28T11:53:05.373Z,22.70
2017-07-28T11:55:32.910Z,22.90
2017-07-28T11:58:00.557Z,22.90
2017-07-28T12:00:28.090Z,22.90
2017-07-28T12:02:55.806Z,22.90
2017-07-28T12:05:23.346Z,22.80
2017-07-28T12:07:51.181Z,22.80
2017-07-28T12:10:18.716Z,22.80
2017-07-28T12:12:46.250Z,22.90
2017-07-28T12:15:14.022Z,23.00
2017-07-28T12:17:41.552Z,23.00
2017-07-28T12:20:09.124Z,23.00
2017-07-28T12:22:36.665Z,22.80
2017-07-28T12:25:08.365Z,22.70
2017-07-28T12:27:35.901Z,22.70
2017-07-28T12:30:03.454Z,22.80
2017-07-28T12:32:31.072Z,23.00
2017-07-28T12:34:58.645Z,23.30
2017-07-28T12:37:26.954Z,23.30
2017-07-28T12:39:54.844Z,23.20
2017-07-28T12:42:22.714Z,23.30
2017-07-28T12:44:50.250Z,23.40
2017-07-28T12:47:17.824Z,23.40
2017-07-28T12:49:45.362Z,23.60
2017-07-28T12:52:12.966Z,23.60
2017-07-28T12:54:40.513Z,23.70
2017-07-28T12:57:08.228Z,23.60
2017-07-28T12:59:35.794Z,23.40
2017-07-28T13:02:04.634Z,23.00
2017-07-28T13:04:32.169Z,23.00
2017-07-28T13:06:59.709Z,22.80
2017-07-28T13:09:27.624Z,22.70
2017-07-28T13:11:55.164Z,22.60
2017-07-28T13:14:22.697Z,22.70
2017-07-28T13:16:50.354Z,22.70
2017-07-28T13:19:22.305Z,22.60
2017-07-28T13:21:50.622Z,22.50
2017-07-28T13:24:18.202Z,22.50
2017-07-28T13:26:45.746Z,22.40
2017-07-28T13:29:13.850Z,22.40
2017-07-28T13:31:41.390Z,22.30
2017-07-28T13:34:08.928Z,22.20
2017-07-28T13:36:36.752Z,22.10
2017-07-28T13:39:05.514Z,21.80
2017-07-28T13:41:33.057Z,21.80
2017-07-28T13:44:00.593Z,21.80
2017-07-28T13:46:44.470Z,21.80
2017-07-28T13:49:12.011Z,21.80
2017-07-28T13:51:39.549Z,22.00
2017-07-28T13:54:11.253Z,22.20
2017-07-28T13:56:39.091Z,22.50
2017-07-28T13:59:06.625Z,22.80
2017-07-28T14:01:34.211Z,23.00
2017-07-28T14:04:01.741Z,23.10
2017-07-28T14:06:30.383Z,23.30
2017-07-28T14:08:57.917Z,23.30
2017-07-28T14:11:25.458Z,23.50
2017-07-28T14:13:53.381Z,23.50
2017-07-28T14:16:20.917Z,23.50
2017-07-28T14:18:48.481Z,23.50
2017-07-28T14:21:16.058Z,23.50
2017-07-28T14:23:43.593Z,23.60
2017-07-28T14:26:11.584Z,23.70
2017-07-28T14:28:39.117Z,23.80
2017-07-28T14:31:06.653Z,23.90
2017-07-28T14:33:35.697Z,23.90
2017-07-28T14:36:03.278Z,23.90
2017-07-28T14:38:30.831Z,23.80
2017-07-28T14:40:58.414Z,23.70
2017-07-28T14:43:25.960Z,23.50
2017-07-28T14:45:53.501Z,23.40
2017-07-28T14:48:21.078Z,23.20
2017-07-28T14:50:48.617Z,23.10
2017-07-28T14:53:16.325Z,23.00
2017-07-28T14:55:44.629Z,23.00
2017-07-28T14:58:12.330Z,23.00
2017-07-28T15:00:39.860Z,23.00
2017-07-28T15:03:08.653Z,22.90
2017-07-28T15:05:36.198Z,22.80
2017-07-28T15:08:03.794Z,22.70
2017-07-28T15:10:31.446Z,22.60
2017-07-28T15:12:58.984Z,22.40
2017-07-28T15:15:26.573Z,22.30
2017-07-28T15:17:54.105Z,22.30
2017-07-28T15:20:24.157Z,22.20
2017-07-28T15:22:51.688Z,22.20
2017-07-28T15:25:19.349Z,22.30
2017-07-28T15:27:46.887Z,22.50
2017-07-28T15:30:14.529Z,22.80
2017-07-28T15:32:42.064Z,23.00
2017-07-28T15:35:11.156Z,23.00
2017-07-28T15:37:38.689Z,23.10
2017-07-28T15:40:06.495Z,23.30
2017-07-28T15:42:34.072Z,23.50
2017-07-28T15:45:01.653Z,23.70
2017-07-28T15:47:29.401Z,23.90
2017-07-28T15:49:56.987Z,24.10
2017-07-28T15:52:24.557Z,24.20
2017-07-28T15:54:52.132Z,24.40
2017-07-28T15:57:19.800Z,24.60
2017-07-28T15:59:47.372Z,24.70
2017-07-28T16:02:14.901Z,24.80
2017-07-28T16:04:42.798Z,24.90
2017-07-28T16:07:10.325Z,25.00
2017-07-28T16:09:37.970Z,25.00
2017-07-28T16:12:05.502Z,24.90
2017-07-28T16:14:33.094Z,24.80
2017-07-28T16:17:00.630Z,24.60
2017-07-28T16:19:28.163Z,24.40
2017-07-28T16:21:58.524Z,24.30
2017-07-28T16:24:26.824Z,24.10
2017-07-28T16:26:54.381Z,24.10
2017-07-28T16:29:21.958Z,24.00
2017-07-28T16:31:49.510Z,23.80
2017-07-28T16:34:17.349Z,23.60
2017-07-28T16:36:45.654Z,23.40
2017-07-28T16:39:13.197Z,23.40
2017-07-28T16:41:44.490Z,23.10
2017-07-28T16:44:12.024Z,23.10
2017-07-28T16:46:39.557Z,23.00
2017-07-28T16:49:08.196Z,22.90
2017-07-28T16:51:35.731Z,22.90
2017-07-28T16:54:03.268Z,22.90
2017-07-28T16:56:31.757Z,22.90
2017-07-28T16:58:59.669Z,22.80
2017-07-28T17:01:29.736Z,22.80
2017-07-28T17:03:58.433Z,22.70
2017-07-28T17:06:25.977Z,22.70
2017-07-28T17:08:54.281Z,22.60
2017-07-28T17:11:21.861Z,22.60
2017-07-28T17:13:49.402Z,22.50
2017-07-28T17:16:17.136Z,22.40
2017-07-28T17:18:44.669Z,22.30
2017-07-28T17:21:12.208Z,22.30
2017-07-28T17:23:39.785Z,22.20
2017-07-28T17:26:07.320Z,22.10
2017-07-28T17:28:34.906Z,22.00
2017-07-28T17:31:02.439Z,21.90
2017-07-28T17:33:30.092Z,21.90
2017-07-28T17:35:57.629Z,22.00
2017-07-28T17:38:25.965Z,22.00
2017-07-28T17:40:53.500Z,22.00
2017-07-28T17:43:21.151Z,22.00
2017-07-28T17:45:48.693Z,22.00
2017-07-28T17:48:16.610Z,21.90
2017-07-28T17:50:44.151Z,21.90
2017-07-28T17:53:11.686Z,21.90
2017-07-28T17:55:39.341Z,21.80
2017-07-28T17:58:07.686Z,21.70
2017-07-28T18:00:35.229Z,21.70
2017-07-28T18:03:03.018Z,21.60
2017-07-28T18:05:30.593Z,21.60
2017-07-28T18:07:58.171Z,21.50
2017-07-28T18:10:26.793Z,21.40
2017-07-28T18:12:54.337Z,21.40
2017-07-28T18:15:21.873Z,21.30
2017-07-28T18:17:49.673Z,21.30
2017-07-28T18:20:17.241Z,21.20
2017-07-28T18:22:44.780Z,21.10
2017-07-28T18:25:12.357Z,21.10
2017-07-28T18:27:39.929Z,21.00
2017-07-28T18:30:07.511Z,20.90
2017-07-28T18:32:35.050Z,20.90
2017-07-28T18:35:02.917Z,20.80
2017-07-28T18:37:30.448Z,20.80
2017-07-28T18:39:58.025Z,20.70
2017-07-28T18:42:25.564Z,20.70
2017-07-28T18:44:53.302Z,20.60
2017-07-28T18:47:20.842Z,20.60
2017-07-28T18:49:48.701Z,20.50
2017-07-28T18:52:16.232Z,20.40
2017-07-28T18:54:43.772Z,20.40
2017-07-28T18:57:11.673Z,20.30
2017-07-28T18:59:39.280Z,20.20
2017-07-28T19:02:07.987Z,20.10
2017-07-28T19:04:37.342Z,20.10
2017-07-28T19:07:04.877Z,20.10
2017-07-28T19:09:32.414Z,20.00
2017-07-28T19:11:59.992Z,19.90
2017-07-28T19:14:27.718Z,19.80
2017-07-28T19:16:55.258Z,19.70
2017-07-28T19:19:22.789Z,19.70
2017-07-28T19:21:50.442Z,19.60
2017-07-28T19:24:17.978Z,19.60
2017-07-28T19:26:46.005Z,19.50
2017-07-28T19:29:13.544Z,19.40
2017-07-28T19:31:41.077Z,19.40
2017-07-28T19:34:08.713Z,19.40
2017-07-28T19:36:36.244Z,19.30
2017-07-28T19:39:03.785Z,19.20
2017-07-28T19:41:31.670Z,19.20
2017-07-28T19:43:59.212Z,19.10
2017-07-28T19:46:31.684Z,19.10
2017-07-28T19:48:59.228Z,19.10
2017-07-28T19:51:26.961Z,19.00
2017-07-28T19:53:54.542Z,18.90
2017-07-28T19:56:22.317Z,18.90
2017-07-28T19:58:49.857Z,18.90
2017-07-28T20:01:22.672Z,18.90
2017-07-28T20:03:50.501Z,18.80
2017-07-28T20:06:18.045Z,18.80
2017-07-28T20:08:46.456Z,18.70
2017-07-28T20:11:14.028Z,18.70
2017-07-28T20:13:42.020Z,18.70
2017-07-28T20:16:09.565Z,18.70
2017-07-28T20:18:37.104Z,18.60
2017-07-28T20:21:04.679Z,18.60
2017-07-28T20:23:32.259Z,18.50
2017-07-28T20:25:59.804Z,18.50
2017-07-28T20:28:27.446Z,18.40
2017-07-28T20:30:56.516Z,18.40
2017-07-28T20:33:24.865Z,18.30
2017-07-28T20:35:52.444Z,18.30
2017-07-28T20:38:20.752Z,18.10
2017-07-28T20:40:48.291Z,18.10
2017-07-28T20:43:16.646Z,18.00
2017-07-28T20:45:44.193Z,18.00
2017-07-28T20:48:12.161Z,18.00
2017-07-28T20:50:39.702Z,18.00
2017-07-28T20:53:07.282Z,18.00
2017-07-28T20:55:34.852Z,18.00
2017-07-28T20:58:02.392Z,18.00
2017-07-28T21:00:30.121Z,18.00
2017-07-28T21:02:58.771Z,18.00
2017-07-28T21:05:26.316Z,17.90
2017-07-28T21:07:53.860Z,17.90
2017-07-28T21:10:21.446Z,17.90
2017-07-28T21:12:49.030Z,17.80
2017-07-28T21:15:17.333Z,17.80
2017-07-28T21:17:45.139Z,17.80
2017-07-28T21:20:12.741Z,17.80
2017-07-28T21:22:40.326Z,17.80
2017-07-28T21:25:07.870Z,17.70
2017-07-28T21:27:36.711Z,17.70
2017-07-28T21:30:04.241Z,17.60
2017-07-28T21:32:32.097Z,17.60
2017-07-28T21:34:59.628Z,17.60
2017-07-28T21:37:27.978Z,17.50
2017-07-28T21:39:55.549Z,17.50
2017-07-28T21:42:23.497Z,17.50
2017-07-28T21:44:51.029Z,17.50
2017-07-28T21:47:18.573Z,17.50
2017-07-28T21:49:50.485Z,17.50
2017-07-28T21:52:18.029Z,17.50
2017-07-28T21:54:45.597Z,17.40
2017-07-28T21:57:13.164Z,17.40
2017-07-28T21:59:40.701Z,17.40
2017-07-28T22:02:08.277Z,17.40
2017-07-28T22:04:35.949Z,17.40
2017-07-28T22:07:04.162Z,17.40
2017-07-28T22:09:32.469Z,17.30
2017-07-28T22:12:00.004Z,17.30
2017-07-28T22:14:28.347Z,17.20
2017-07-28T22:16:55.877Z,17.20
2017-07-28T22:19:23.921Z,17.20
2017-07-28T22:21:52.226Z,17.10
2017-07-28T22:24:19.770Z,17.10
2017-07-28T22:26:47.676Z,17.10
2017-07-28T22:31:49.497Z,17.10
2017-07-28T22:34:17.910Z,17.00
2017-07-28T22:36:45.445Z,17.00
2017-07-28T22:39:13.026Z,17.00
2017-07-28T22:41:40.565Z,17.00
2017-07-28T22:44:08.985Z,17.00
2017-07-28T22:46:36.525Z,17.00
2017-07-28T22:49:04.103Z,17.00
2017-07-28T22:51:31.642Z,17.00
2017-07-28T22:53:59.317Z,17.00
2017-07-28T22:56:26.849Z,17.00
2017-07-28T22:58:55.140Z,16.90
2017-07-28T23:01:22.804Z,16.90
2017-07-28T23:03:54.241Z,16.90
2017-07-28T23:06:22.576Z,16.90
2017-07-28T23:08:50.112Z,16.90
2017-07-28T23:11:18.066Z,16.90
2017-07-28T23:13:45.610Z,16.90
2017-07-28T23:16:13.910Z,16.80
2017-07-28T23:18:41.669Z,16.80
2017-07-28T23:21:09.262Z,16.80
2017-07-28T23:23:36.792Z,16.90
2017-07-28T23:26:04.322Z,16.80
2017-07-28T23:28:32.728Z,16.80
2017-07-28T23:31:00.279Z,16.80
2017-07-28T23:33:27.869Z,16.80
2017-07-28T23:35:56.253Z,16.80
2017-07-28T23:38:23.793Z,16.80
2017-07-28T23:40:51.322Z,16.80
2017-07-28T23:43:19.665Z,16.80
2017-07-28T23:45:47.237Z,16.80
2017-07-28T23:48:14.769Z,16.80
2017-07-28T23:50:42.345Z,16.80
2017-07-28T23:53:09.880Z,16.80
2017-07-28T23:55:37.509Z,16.80
2017-07-28T23:58:06.292Z,16.80
